• Join FlightAware (Why Join?)
  • Login
  • US Flag 
Gobble Gobble! 
03:08PM EST


 

Airport Tracker/Info


-or-


 

Live Flight TrackerFlight Track Log ✈ UAL4150 ✈ 06-Oct-2013 ✈ KIAD - KORF

Flight Track Log - Related Links

Times and Time Zones

All times are in EDT time to prevent confusion due to time zone crossing. See the UAL4150 flight status page for this flight to view local times or setup timezone preferences in your user account.

Time Position Orientation Groundspeed Altitude Reporting Facility
EDT Latitude Longitude Course Direction KTS MPH feet Rate Location/Type
12:31PM 38.7434 -77.3312 123° Southeast  Level Estimated
12:32PM 38.6753 -77.2885 125° Southeast  Level Estimated
12:33PM 38.6631 -77.1927 99° East  Level FlightAware Approximate
12:34PM 38.5940 -77.1529 126° Southeast  Level Estimated
12:35PM 38.5248 -77.1132 180° South  Level Estimated
12:36PM 38.4557 -77.0736 165° South  Level Estimated
12:37PM 38.3865 -77.0341 159° South  Level Estimated
12:38PM 38.3173 -76.9947 175° South  Level Estimated
12:39PM 38.2678 -76.9215 131° Southeast  Level FlightAware Approximate
12:40PM 38.2183 -76.8484 131° Southeast  Level FlightAware Approximate
12:41PM 38.1688 -76.7754 131° Southeast  Level FlightAware Approximate
12:42PM 38.0975 -76.7428 183° South  Level Estimated
12:43PM 38.0238 -76.7200 166° South  Level FlightAware Approximate
12:44PM 37.9501 -76.6974 166° South  Level FlightAware Approximate
12:45PM 37.8792 -76.6636 142° Southeast  Level Estimated
12:46PM 37.8083 -76.6298 130° Southeast  Level Estimated
12:47PM 37.7373 -76.5961 142° Southeast  Level Estimated
12:48PM 37.6663 -76.5625 142° Southeast  Level Estimated
12:49PM 37.5953 -76.5289 135° Southeast  Level Estimated
12:50PM 37.5244 -76.4954 169° South  Level Estimated
12:51PM 37.4534 -76.4620 172° South  Level Estimated
12:52PM 37.4001 -76.3941 135° Southeast  Level FlightAware Approximate
12:53PM 37.3469 -76.3262 135° Southeast  Level FlightAware Approximate
12:54PM 37.2729 -76.3057 171° South  Level Estimated
12:55PM 37.2028 -76.2693 158° South  Level FlightAware Approximate
12:56PM 37.1282 -76.2528 158° South  Level Estimated
12:57PM 37.0535 -76.2363 171° South  Level Estimated
12:58PM 36.9789 -76.2198 180° South  Level Estimated
12:59PM 36.9042 -76.2033 180° South  Level Estimated
01:00PM 36.8946 -76.2012 180° South  Level Estimated
01:01PM 36.8946 -76.2012 180° South  Level Estimated
01:02PM 36.8946 -76.2012 180° South  Level Estimated
01:03PM 36.8946 -76.2012 180° South  Level Estimated
01:04PM 36.8946 -76.2012 180° South  Level Estimated
01:05PM 36.8946 -76.2012 180° South  Level Estimated
01:06PM 36.8946 -76.2012 180° South  Level Estimated